Time;durP1;ratioP1;P1;durP2;ratioP2;P2;SDS_P1;SDS_P2;PMS_P1;PMS_P2;Temp;Humidity;BMP_temperature;BMP_pressure;BME280_temperature;BME280_humidity;BME280_pressure;Samples;Min_cycle;Max_cycle;Signal;HPM_P1;HPM_P2
2020/12/18 00:01:32;;;;;;;19.83;9.60;;;7.40;93.00;;;;;;5006188;28;20065;-52
2020/12/18 00:04:18;;;;;;;12.57;8.27;;;7.40;93.00;;;;;;4985759;28;20109;-49
2020/12/18 00:06:44;;;;;;;18.40;8.93;;;7.30;93.00;;;;;;4989670;28;20053;-49
2020/12/18 00:09:30;;;;;;;18.58;8.63;;;7.30;93.00;;;;;;4972781;28;20050;-50
2020/12/18 00:11:57;;;;;;;20.52;9.18;;;7.30;93.00;;;;;;4975297;28;20113;-49
2020/12/18 00:14:24;;;;;;;21.50;8.40;;;7.20;93.00;;;;;;4983232;28;20050;-51
2020/12/18 00:17:10;;;;;;;18.75;8.60;;;7.20;93.10;;;;;;4973211;28;20046;-49
2020/12/18 00:19:35;;;;;;;17.05;8.60;;;7.20;93.20;;;;;;4980918;28;20034;-52
2020/12/18 00:22:01;;;;;;;21.50;8.75;;;7.20;93.10;;;;;;4984429;28;20042;-50
2020/12/18 00:24:28;;;;;;;21.27;9.07;;;7.20;93.00;;;;;;4985093;28;20421;-51
2020/12/18 00:26:55;;;;;;;23.67;8.70;;;7.10;93.10;;;;;;5000645;28;20050;-52
2020/12/18 00:29:20;;;;;;;20.90;9.30;;;7.10;93.10;;;;;;4975764;28;20451;-51
2020/12/18 00:31:46;;;;;;;13.85;8.52;;;7.10;93.10;;;;;;4975058;28;20063;-51
2020/12/18 00:34:12;;;;;;;22.23;9.18;;;7.10;93.10;;;;;;4985743;28;20046;-53
2020/12/18 00:36:38;;;;;;;17.08;8.75;;;7.10;93.10;;;;;;4974745;28;20134;-49
2020/12/18 00:39:06;;;;;;;20.27;9.35;;;7.10;93.20;;;;;;4973254;28;20477;-49
2020/12/18 00:41:32;;;;;;;18.52;9.57;;;7.00;93.10;;;;;;4987627;28;20058;-51
2020/12/18 00:43:59;;;;;;;23.20;10.02;;;7.10;93.00;;;;;;4981704;28;20050;-51
2020/12/18 00:46:25;;;;;;;22.27;10.07;;;7.00;92.90;;;;;;4973171;28;20065;-52
2020/12/18 00:48:51;;;;;;;17.67;9.38;;;7.00;93.00;;;;;;4977156;28;20046;-49
2020/12/18 00:51:17;;;;;;;20.63;10.35;;;7.00;93.00;;;;;;4976653;28;20041;-53
2020/12/18 00:53:43;;;;;;;17.08;9.18;;;7.00;93.10;;;;;;4982571;28;20046;-54
2020/12/18 00:56:10;;;;;;;22.15;10.13;;;6.90;93.10;;;;;;4976994;28;20495;-52
2020/12/18 00:58:36;;;;;;;17.90;10.18;;;6.90;93.10;;;;;;4994781;28;20034;-54
2020/12/18 01:01:03;;;;;;;18.75;10.07;;;7.00;92.90;;;;;;4982133;28;20061;-50
2020/12/18 01:03:29;;;;;;;18.48;10.88;;;6.90;92.90;;;;;;4984788;28;20425;-53
2020/12/18 01:05:56;;;;;;;16.95;10.25;;;6.90;93.00;;;;;;4977988;28;20062;-54
2020/12/18 01:08:22;;;;;;;19.10;10.05;;;6.90;93.00;;;;;;4972654;28;20070;-54
2020/12/18 01:10:49;;;;;;;19.92;11.43;;;6.90;93.10;;;;;;4977878;28;20408;-53
2020/12/18 01:13:34;;;;;;;25.95;11.20;;;6.80;93.10;;;;;;4983957;28;20480;-52
2020/12/18 01:16:01;;;;;;;25.60;11.02;;;6.80;93.20;;;;;;4981321;28;20046;-55
2020/12/18 01:18:28;;;;;;;22.20;11.15;;;6.90;93.20;;;;;;4981119;28;20120;-52
2020/12/18 01:21:15;;;;;;;23.48;10.73;;;6.90;93.10;;;;;;4984856;28;20050;-51
2020/12/18 01:23:42;;;;;;;18.13;11.32;;;6.90;93.00;;;;;;4994291;28;20070;-53
2020/12/18 01:26:29;;;;;;;26.98;12.45;;;6.80;93.00;;;;;;4960729;28;20053;-54
2020/12/18 01:28:55;;;;;;;24.45;12.13;;;6.80;92.90;;;;;;4979574;28;20046;-54
2020/12/18 01:31:20;;;;;;;23.70;12.48;;;6.80;93.00;;;;;;4977918;28;20087;-54
2020/12/18 01:33:51;;;;;;;21.88;12.10;;;6.80;93.00;;;;;;4977461;28;20035;-54
2020/12/18 01:36:18;;;;;;;24.42;12.38;;;6.70;93.00;;;;;;4996379;28;20098;-54
2020/12/18 01:38:44;;;;;;;21.95;12.45;;;6.70;93.10;;;;;;4974929;28;20109;-53
2020/12/18 01:41:10;;;;;;;25.00;12.70;;;6.60;93.10;;;;;;4971744;28;20039;-54
2020/12/18 01:43:36;;;;;;;22.48;12.50;;;6.60;93.20;;;;;;4973897;28;20054;-51
2020/12/18 01:46:26;;;;;;;20.15;11.10;;;6.60;93.30;;;;;;4984998;28;20046;-53
2020/12/18 01:48:53;;;;;;;22.35;12.32;;;6.60;93.20;;;;;;4990867;28;20050;-50
2020/12/18 01:51:21;;;;;;;23.98;12.60;;;6.60;93.40;;;;;;4985725;28;20050;-54
2020/12/18 01:53:48;;;;;;;25.05;13.05;;;6.60;93.10;;;;;;4981569;28;20052;-53
2020/12/18 01:56:14;;;;;;;20.08;12.10;;;6.60;93.10;;;;;;4977803;28;21071;-52
2020/12/18 01:58:43;;;;;;;20.08;12.07;;;6.60;93.20;;;;;;4981672;28;20038;-54
2020/12/18 02:01:10;;;;;;;25.63;12.77;;;6.60;93.00;;;;;;4981483;28;20034;-54
2020/12/18 02:03:37;;;;;;;25.38;13.55;;;6.50;93.10;;;;;;4978634;28;20203;-50
2020/12/18 02:06:26;;;;;;;29.63;14.02;;;6.50;93.20;;;;;;4979966;28;20487;-54
2020/12/18 02:09:11;;;;;;;21.70;13.48;;;6.50;93.20;;;;;;4976772;28;20058;-54
2020/12/18 02:11:37;;;;;;;28.67;13.55;;;6.50;93.30;;;;;;4986105;28;20034;-54
2020/12/18 02:14:07;;;;;;;27.48;14.27;;;6.50;93.30;;;;;;4985917;28;20054;-54
2020/12/18 02:16:35;;;;;;;;;;;6.50;93.30;;;;;;4981515;28;20046;-54
2020/12/18 02:19:01;;;;;;;23.05;13.52;;;6.50;93.30;;;;;;4982023;28;19976;-53
2020/12/18 02:21:28;;;;;;;28.63;13.73;;;6.50;93.40;;;;;;4982154;28;20051;-50
2020/12/18 02:24:27;;;;;;;29.25;14.93;;;6.50;93.30;;;;;;4973863;28;20403;-54
2020/12/18 02:27:13;;;;;;;31.20;13.55;;;6.40;93.30;;;;;;4973918;28;20076;-53
2020/12/18 02:29:38;;;;;;;30.65;14.85;;;6.40;93.40;;;;;;4981964;28;20443;-50
2020/12/18 02:32:06;;;;;;;26.42;14.35;;;6.40;93.50;;;;;;4989053;28;20039;-51
2020/12/18 02:34:52;;;;;;;28.42;14.68;;;6.40;93.60;;;;;;4978919;28;20108;-51
2020/12/18 02:37:39;;;;;;;28.23;13.68;;;6.40;93.50;;;;;;4988100;28;20401;-50
2020/12/18 02:40:07;;;;;;;27.17;14.50;;;6.40;93.60;;;;;;4993497;28;20042;-52
2020/12/18 02:42:53;;;;;;;25.15;14.32;;;6.30;93.60;;;;;;4981514;28;20134;-52
2020/12/18 02:45:19;;;;;;;25.95;14.38;;;6.40;93.60;;;;;;4979477;28;20142;-53
2020/12/18 02:47:46;;;;;;;26.63;14.50;;;6.40;93.60;;;;;;4993649;28;20068;-53
2020/12/18 02:50:12;;;;;;;29.33;15.38;;;6.40;93.60;;;;;;4981406;28;20046;-51
2020/12/18 02:53:01;;;;;;;24.17;14.82;;;6.40;93.60;;;;;;4973718;28;20415;-49
2020/12/18 02:55:27;;;;;;;24.90;14.57;;;6.40;93.70;;;;;;4980219;28;20133;-49
2020/12/18 02:57:53;;;;;;;26.60;15.40;;;6.40;93.60;;;;;;4990357;28;20034;-49
2020/12/18 03:00:18;;;;;;;23.83;14.98;;;6.40;93.60;;;;;;4979463;28;20053;-49
2020/12/18 03:02:45;;;;;;;29.42;15.35;;;6.40;93.60;;;;;;4975457;28;20161;-49
2020/12/18 03:05:12;;;;;;;26.90;15.27;;;6.40;93.60;;;;;;4975865;28;20050;-49
2020/12/18 03:07:41;;;;;;;29.30;15.38;;;6.40;93.60;;;;;;4975788;28;20492;-54
2020/12/18 03:10:07;;;;;;;25.60;15.27;;;6.30;93.70;;;;;;4989820;28;20506;-49
2020/12/18 03:12:32;;;;;;;32.63;16.30;;;6.40;93.70;;;;;;4982048;28;20049;-49
2020/12/18 03:14:59;;;;;;;26.00;15.85;;;6.40;93.80;;;;;;4995846;28;20444;-49
2020/12/18 03:17:46;;;;;;;28.55;16.15;;;6.40;93.80;;;;;;4951475;28;20081;-53
2020/12/18 03:20:14;;;;;;;35.40;16.20;;;6.40;93.70;;;;;;4973468;28;20093;-49
2020/12/18 03:22:41;;;;;;;26.63;15.10;;;6.40;93.70;;;;;;4990305;28;20544;-49
2020/12/18 03:25:07;;;;;;;40.03;17.10;;;6.40;93.80;;;;;;4980452;28;20042;-51
2020/12/18 03:27:32;;;;;;;25.92;15.07;;;6.40;93.70;;;;;;4974362;28;20038;-52
2020/12/18 03:30:18;;;;;;;30.48;16.45;;;6.30;93.80;;;;;;4975595;28;20050;-54
2020/12/18 03:32:45;;;;;;;29.63;16.08;;;6.30;93.90;;;;;;4990572;28;20060;-54
2020/12/18 03:35:31;;;;;;;29.23;16.23;;;6.30;93.80;;;;;;4973336;28;20294;-52
2020/12/18 03:38:00;;;;;;;31.67;16.00;;;6.30;93.90;;;;;;4974049;28;20508;-50
2020/12/18 03:40:26;;;;;;;29.20;15.98;;;6.40;93.90;;;;;;4982282;28;20430;-53
2020/12/18 03:42:51;;;;;;;36.85;17.15;;;6.40;93.80;;;;;;4990406;28;20052;-54
2020/12/18 03:45:17;;;;;;;29.00;15.60;;;6.40;93.80;;;;;;4976211;28;20065;-51
2020/12/18 03:48:03;;;;;;;34.20;15.90;;;6.40;93.70;;;;;;4986368;28;20038;-51
2020/12/18 03:50:28;;;;;;;27.90;15.07;;;6.40;93.80;;;;;;4985516;28;20057;-52
2020/12/18 03:52:55;;;;;;;24.95;15.48;;;6.40;93.70;;;;;;4987229;28;20102;-50
2020/12/18 03:55:21;;;;;;;27.80;15.05;;;6.40;93.90;;;;;;4986916;28;20050;-51
2020/12/18 03:57:47;;;;;;;32.30;15.43;;;6.30;93.90;;;;;;4974248;28;20057;-52
2020/12/18 04:00:13;;;;;;;31.75;16.13;;;6.40;93.90;;;;;;4991180;28;20411;-52
2020/12/18 04:02:39;;;;;;;28.80;16.27;;;6.40;93.90;;;;;;4977115;28;20539;-51
2020/12/18 04:05:05;;;;;;;31.13;16.30;;;6.40;93.90;;;;;;4974809;28;20050;-51
2020/12/18 04:07:32;;;;;;;30.20;16.35;;;6.40;93.80;;;;;;4980021;28;20534;-56
2020/12/18 04:10:00;;;;;;;25.70;15.38;;;6.40;93.90;;;;;;4984917;28;20038;-51
2020/12/18 04:12:47;;;;;;;29.10;16.08;;;6.40;93.90;;;;;;4973780;28;20136;-51
2020/12/18 04:15:32;;;;;;;28.77;16.70;;;6.40;93.90;;;;;;4975132;28;20054;-50
2020/12/18 04:17:58;;;;;;;29.77;15.77;;;6.40;93.80;;;;;;4978527;28;20488;-50
2020/12/18 04:20:24;;;;;;;35.83;16.05;;;6.40;93.80;;;;;;4974240;28;20043;-50
2020/12/18 04:23:10;;;;;;;28.70;14.80;;;6.40;93.90;;;;;;4976381;28;20054;-54
2020/12/18 04:25:36;;;;;;;28.50;16.00;;;6.40;93.90;;;;;;4978022;28;20042;-52
2020/12/18 04:28:23;;;;;;;29.27;16.42;;;6.40;93.90;;;;;;4967567;28;20047;-50
2020/12/18 04:30:51;;;;;;;25.80;15.23;;;6.40;94.00;;;;;;4984863;28;20055;-50
2020/12/18 04:33:17;;;;;;;33.13;15.38;;;6.40;94.00;;;;;;4973623;28;20097;-50
2020/12/18 04:35:43;;;;;;;28.45;14.85;;;6.40;94.00;;;;;;4975919;28;20145;-50
2020/12/18 04:38:13;;;;;;;23.95;13.93;;;6.40;94.00;;;;;;4984075;28;20126;-52
2020/12/18 04:40:40;;;;;;;25.83;15.00;;;6.40;93.90;;;;;;4973390;28;20081;-50
2020/12/18 04:43:26;;;;;;;27.48;15.18;;;6.50;94.00;;;;;;4961783;28;20070;-50
2020/12/18 04:45:57;;;;;;;28.90;14.20;;;6.50;93.80;;;;;;4973407;28;20050;-54
2020/12/18 04:48:43;;;;;;;25.73;14.65;;;6.40;93.80;;;;;;4980855;28;20061;-51
2020/12/18 04:51:15;;;;;;;23.95;13.32;;;6.40;93.90;;;;;;4979758;28;20043;-50
2020/12/18 04:53:47;;;;;;;26.40;13.90;;;6.40;93.90;;;;;;4987250;28;20414;-50
2020/12/18 04:56:35;;;;;;;27.42;13.50;;;6.40;93.90;;;;;;4972053;28;20047;-50
2020/12/18 04:59:01;;;;;;;25.38;13.70;;;6.40;93.90;;;;;;4980080;28;20078;-53
2020/12/18 05:01:27;;;;;;;22.80;13.43;;;6.40;93.90;;;;;;4985763;28;20057;-50
2020/12/18 05:03:54;;;;;;;25.67;12.80;;;6.40;93.90;;;;;;4989976;28;20046;-49
2020/12/18 05:06:40;;;;;;;27.25;12.85;;;6.40;93.90;;;;;;4986423;28;20046;-50
2020/12/18 05:09:06;;;;;;;20.60;11.80;;;6.40;94.00;;;;;;4972263;28;20528;-50
2020/12/18 05:11:31;;;;;;;25.17;11.77;;;6.40;93.90;;;;;;4974935;28;20045;-50
2020/12/18 05:13:57;;;;;;;25.90;12.75;;;6.40;94.20;;;;;;4974554;28;20091;-51
2020/12/18 05:16:25;;;;;;;21.77;11.85;;;6.40;93.90;;;;;;4976591;28;20121;-49
2020/12/18 05:18:51;;;;;;;25.15;11.23;;;6.40;93.90;;;;;;4976144;28;20550;-49
2020/12/18 05:21:39;;;;;;;24.92;11.85;;;6.30;93.90;;;;;;4979431;28;20713;-51
2020/12/18 05:24:26;;;;;;;22.15;11.38;;;6.40;93.90;;;;;;4973363;28;20038;-54
2020/12/18 05:26:57;;;;;;;19.92;11.27;;;6.40;93.90;;;;;;5003982;28;20170;-54
2020/12/18 05:29:46;;;;;;;22.98;11.50;;;6.40;93.90;;;;;;4991059;28;20125;-54
2020/12/18 05:32:13;;;;;;;19.05;10.88;;;6.40;93.80;;;;;;4985509;28;20073;-55
2020/12/18 05:34:40;;;;;;;24.70;11.20;;;6.40;93.80;;;;;;4978428;28;20118;-55
2020/12/18 05:37:06;;;;;;;23.48;11.55;;;6.40;93.80;;;;;;4979876;28;20100;-55
2020/12/18 05:39:52;;;;;;;22.52;11.07;;;6.40;93.90;;;;;;4974119;28;20043;-54
2020/12/18 05:42:46;;;;;;;22.90;11.27;;;6.50;93.80;;;;;;4983610;28;20137;-55
2020/12/18 05:45:16;;;;;;;21.50;10.50;;;6.40;93.80;;;;;;4991523;28;20045;-53
2020/12/18 05:47:56;;;;;;;22.95;10.50;;;6.40;93.80;;;;;;4989401;28;20130;-52
2020/12/18 05:50:44;;;;;;;23.58;11.02;;;6.40;93.80;;;;;;4980793;28;20078;-53
2020/12/18 05:53:11;;;;;;;23.08;10.57;;;6.40;93.70;;;;;;4970543;28;20043;-54
2020/12/18 05:55:39;;;;;;;20.67;10.60;;;6.40;93.80;;;;;;4968067;28;20034;-52
2020/12/18 05:58:04;;;;;;;25.80;11.13;;;6.30;93.80;;;;;;4973343;28;20524;-54
2020/12/18 06:00:36;;;;;;;19.98;10.75;;;6.30;93.90;;;;;;4979214;28;20176;-53
2020/12/18 06:03:09;;;;;;;23.70;10.30;;;6.30;93.80;;;;;;4977828;28;20867;-51
2020/12/18 06:05:58;;;;;;;19.42;10.13;;;6.40;93.70;;;;;;4980091;28;20104;-52
2020/12/18 06:08:26;;;;;;;24.38;10.18;;;6.40;93.70;;;;;;4979576;28;20128;-51
2020/12/18 06:10:52;;;;;;;20.95;9.90;;;6.40;93.80;;;;;;4979376;28;20590;-52
2020/12/18 06:13:18;;;;;;;21.23;10.15;;;6.40;93.80;;;;;;4979393;28;20039;-53
2020/12/18 06:15:47;;;;;;;17.58;10.55;;;6.40;93.80;;;;;;4978676;28;21863;-53
2020/12/18 06:18:16;;;;;;;23.10;10.57;;;6.40;93.70;;;;;;4978516;28;20054;-52
2020/12/18 06:20:44;;;;;;;22.30;10.35;;;6.40;93.80;;;;;;4993284;28;20074;-54
2020/12/18 06:23:14;;;;;;;22.77;9.80;;;6.40;93.90;;;;;;4980901;28;20059;-54
2020/12/18 06:25:41;;;;;;;21.70;10.50;;;6.40;93.90;;;;;;4978818;28;20034;-52
2020/12/18 06:28:07;;;;;;;24.13;9.73;;;6.40;93.80;;;;;;4974534;28;20408;-49
2020/12/18 06:30:33;;;;;;;16.75;9.50;;;6.40;93.90;;;;;;4987907;28;20130;-52
2020/12/18 06:33:18;;;;;;;16.13;10.00;;;6.50;93.80;;;;;;4984372;28;20111;-53
2020/12/18 06:35:47;;;;;;;18.50;10.05;;;6.50;93.80;;;;;;4999052;28;20065;-50
2020/12/18 06:38:37;;;;;;;23.13;10.07;;;6.50;93.90;;;;;;4991140;28;20085;-50
2020/12/18 06:41:21;;;;;;;22.05;10.18;;;6.50;93.80;;;;;;4990171;28;20056;-53
2020/12/18 06:43:47;;;;;;;17.13;10.23;;;6.50;93.80;;;;;;4985688;28;20400;-50
2020/12/18 06:46:18;;;;;;;20.98;9.60;;;6.50;93.90;;;;;;4994463;28;20097;-52
2020/12/18 06:48:51;;;;;;;18.45;9.75;;;6.60;93.80;;;;;;4981556;28;20054;-50
2020/12/18 06:51:46;;;;;;;21.70;9.77;;;6.60;93.80;;;;;;4995366;28;20078;-52
2020/12/18 06:54:13;;;;;;;19.67;9.45;;;6.60;93.80;;;;;;4989699;28;20297;-51
2020/12/18 06:57:21;;;;;;;19.63;9.07;;;6.50;93.90;;;;;;4960706;28;20046;-53
2020/12/18 06:59:47;;;;;;;20.00;9.63;;;6.50;93.90;;;;;;4975760;28;20038;-52
2020/12/18 07:02:35;;;;;;;21.48;9.63;;;6.60;93.90;;;;;;4988133;28;20391;-50
2020/12/18 07:05:00;;;;;;;18.65;8.95;;;6.60;93.80;;;;;;4985836;28;20043;-54
2020/12/18 07:07:26;;;;;;;23.90;9.82;;;6.70;93.80;;;;;;4981501;28;20038;-50
2020/12/18 07:09:52;;;;;;;19.13;8.93;;;6.70;93.70;;;;;;4983195;28;20030;-53
2020/12/18 07:12:18;;;;;;;21.15;9.10;;;6.70;93.80;;;;;;4984546;28;20043;-50
2020/12/18 07:14:48;;;;;;;21.48;9.52;;;6.70;93.70;;;;;;4990913;28;20050;-51
2020/12/18 07:17:43;;;;;;;18.13;9.30;;;6.70;93.80;;;;;;4981231;28;20046;-54
2020/12/18 07:20:28;;;;;;;18.67;8.80;;;6.70;93.80;;;;;;4981461;28;20213;-51
2020/12/18 07:22:55;;;;;;;17.40;8.52;;;6.80;93.70;;;;;;4980698;28;20046;-50
2020/12/18 07:25:41;;;;;;;22.42;9.32;;;6.80;93.60;;;;;;4991235;28;20046;-54
2020/12/18 07:28:08;;;;;;;14.68;9.02;;;6.80;93.70;;;;;;4985692;28;20050;-52
2020/12/18 07:30:38;;;;;;;20.20;9.00;;;6.80;93.70;;;;;;4976261;28;20035;-54
2020/12/18 07:33:05;;;;;;;19.50;8.93;;;6.80;93.60;;;;;;4980323;28;20045;-52
2020/12/18 07:35:54;;;;;;;16.00;8.45;;;6.80;93.60;;;;;;4981401;28;20057;-54
2020/12/18 07:38:32;;;;;;;15.05;8.38;;;6.90;93.40;;;;;;4985733;28;20554;-53
2020/12/18 07:41:06;;;;;;;17.00;8.32;;;6.80;93.40;;;;;;4982263;28;20047;-54
2020/12/18 07:43:34;;;;;;;17.85;8.05;;;6.80;93.30;;;;;;4981295;28;20056;-53
2020/12/18 07:46:04;;;;;;;19.40;8.75;;;6.80;93.30;;;;;;4978228;28;20435;-52
2020/12/18 07:48:35;;;;;;;13.88;8.07;;;6.80;93.40;;;;;;4979583;28;20330;-54
2020/12/18 07:51:09;;;;;;;14.90;8.52;;;6.80;93.50;;;;;;4984738;28;20038;-54
2020/12/18 07:53:38;;;;;;;16.42;8.30;;;6.80;93.50;;;;;;4977948;28;20058;-54
2020/12/18 07:56:24;;;;;;;18.17;7.90;;;6.80;93.50;;;;;;4981761;28;20044;-54
2020/12/18 07:58:59;;;;;;;16.25;7.95;;;6.80;93.50;;;;;;4974483;28;20042;-54
2020/12/18 08:01:27;;;;;;;17.63;8.38;;;6.90;93.50;;;;;;4979553;28;20121;-55
2020/12/18 08:04:08;;;;;;;17.27;7.90;;;6.80;93.40;;;;;;4981971;28;20042;-55
2020/12/18 08:06:37;;;;;;;16.35;7.60;;;6.80;93.50;;;;;;4978661;28;20038;-54
2020/12/18 08:09:23;;;;;;;14.98;7.38;;;6.90;93.60;;;;;;4978258;28;20660;-54
2020/12/18 08:11:50;;;;;;;13.07;7.07;;;6.90;93.40;;;;;;4979044;28;20043;-53
2020/12/18 08:14:17;;;;;;;11.23;6.80;;;6.90;93.30;;;;;;4983159;28;20054;-54
2020/12/18 08:17:03;;;;;;;13.07;6.57;;;6.90;93.40;;;;;;4979022;28;20491;-54
2020/12/18 08:19:29;;;;;;;18.40;7.00;;;6.90;93.40;;;;;;4987728;28;20035;-54
2020/12/18 08:21:56;;;;;;;15.73;7.47;;;7.00;93.30;;;;;;4986845;28;20093;-55
2020/12/18 08:24:36;;;;;;;16.77;7.03;;;7.00;93.10;;;;;;4980388;28;20109;-54
2020/12/18 08:27:12;;;;;;;14.15;7.05;;;7.00;93.20;;;;;;4980411;28;20042;-54
2020/12/18 08:29:39;;;;;;;16.33;7.47;;;7.00;93.20;;;;;;4969050;28;20047;-54
2020/12/18 08:32:07;;;;;;;16.00;6.30;;;6.90;93.30;;;;;;4969760;28;20101;-55
2020/12/18 08:35:04;;;;;;;15.93;6.55;;;7.00;93.40;;;;;;4991373;28;20093;-55
2020/12/18 08:37:51;;;;;;;13.65;6.93;;;6.90;93.40;;;;;;4996405;28;20046;-54
2020/12/18 08:40:43;;;;;;;13.80;6.60;;;6.90;93.40;;;;;;4985779;28;20522;-54
2020/12/18 08:43:12;;;;;;;13.30;6.88;;;6.80;93.60;;;;;;4989511;28;20039;-54
2020/12/18 08:45:45;;;;;;;18.15;7.13;;;6.90;93.50;;;;;;4983353;28;20400;-54
2020/12/18 08:48:17;;;;;;;12.57;6.90;;;6.90;93.50;;;;;;4978062;28;20047;-53
2020/12/18 08:50:43;;;;;;;17.13;6.87;;;6.90;93.50;;;;;;4974604;28;20125;-54
2020/12/18 08:53:14;;;;;;;11.88;7.03;;;7.00;93.50;;;;;;4978895;28;20370;-54
2020/12/18 08:55:40;;;;;;;17.52;7.32;;;7.00;93.50;;;;;;4977942;28;20042;-54
2020/12/18 08:58:11;;;;;;;20.90;7.25;;;7.00;93.50;;;;;;4982853;28;20050;-54
2020/12/18 09:00:37;;;;;;;15.38;7.00;;;7.10;93.50;;;;;;4977484;28;20030;-52
2020/12/18 09:03:04;;;;;;;16.42;7.22;;;7.10;93.50;;;;;;4980282;28;20557;-55
2020/12/18 09:05:49;;;;;;;17.10;7.05;;;7.20;93.50;;;;;;4977796;28;20046;-55
2020/12/18 09:08:16;;;;;;;13.32;6.63;;;7.30;93.50;;;;;;4976940;28;20046;-55
2020/12/18 09:10:52;;;;;;;14.35;6.72;;;7.30;93.50;;;;;;4978209;28;20125;-55
2020/12/18 09:13:38;;;;;;;19.27;7.20;;;7.40;93.40;;;;;;4977730;28;20074;-55
2020/12/18 09:16:24;;;;;;;17.17;6.60;;;7.50;93.30;;;;;;4983410;28;20039;-55
2020/12/18 09:19:12;;;;;;;14.70;7.72;;;7.50;93.40;;;;;;4981400;28;20551;-54
2020/12/18 09:21:38;;;;;;;12.80;7.45;;;7.50;93.40;;;;;;4983487;28;20042;-51
2020/12/18 09:24:25;;;;;;;19.60;7.25;;;7.60;93.40;;;;;;4980307;28;20046;-50
2020/12/18 09:27:14;;;;;;;14.95;7.50;;;7.60;93.40;;;;;;4985501;28;20149;-51
2020/12/18 09:29:39;;;;;;;13.10;6.60;;;7.60;93.40;;;;;;4979424;28;20053;-53
2020/12/18 09:32:25;;;;;;;19.08;7.05;;;7.60;93.50;;;;;;4974552;28;20050;-54
2020/12/18 09:34:53;;;;;;;18.60;7.80;;;7.60;93.40;;;;;;4982677;28;20047;-54
2020/12/18 09:37:19;;;;;;;12.48;7.03;;;7.70;93.50;;;;;;4978076;28;20046;-54
2020/12/18 09:40:04;;;;;;;17.85;7.35;;;7.70;93.50;;;;;;4973148;28;20038;-51
2020/12/18 09:42:30;;;;;;;15.30;7.65;;;7.80;93.40;;;;;;4979479;28;20612;-54
2020/12/18 09:44:55;;;;;;;13.60;6.88;;;7.70;93.40;;;;;;4979130;28;20055;-51
2020/12/18 09:47:23;;;;;;;14.32;7.35;;;7.80;93.30;;;;;;4994369;28;20116;-51
2020/12/18 09:49:48;;;;;;;15.13;8.18;;;7.90;93.20;;;;;;4983510;28;20490;-55
2020/12/18 09:52:34;;;;;;;11.55;7.20;;;7.90;93.30;;;;;;4977563;28;20046;-52
2020/12/18 09:55:00;;;;;;;14.50;7.85;;;7.80;93.30;;;;;;4976810;28;20137;-52
2020/12/18 09:57:25;;;;;;;16.13;8.85;;;7.80;93.30;;;;;;4977840;28;20041;-53
2020/12/18 09:59:51;;;;;;;14.90;8.65;;;7.90;93.40;;;;;;4988609;28;20046;-50
2020/12/18 10:02:37;;;;;;;17.48;8.98;;;7.90;93.40;;;;;;4989177;28;20419;-51
2020/12/18 10:05:03;;;;;;;19.25;8.80;;;7.90;93.50;;;;;;4984541;28;20050;-53
2020/12/18 10:07:29;;;;;;;17.20;8.40;;;7.90;93.50;;;;;;4981546;28;20035;-51
2020/12/18 10:10:16;;;;;;;14.63;8.13;;;7.90;93.40;;;;;;4984712;28;20078;-51
2020/12/18 10:13:02;;;;;;;15.60;8.27;;;8.00;93.40;;;;;;4993154;28;20058;-53
2020/12/18 10:15:48;;;;;;;20.55;8.90;;;8.00;93.40;;;;;;4981542;28;20117;-54
2020/12/18 10:18:33;;;;;;;17.25;8.18;;;8.00;93.50;;;;;;4976786;28;20133;-52
2020/12/18 10:21:03;;;;;;;16.80;8.85;;;8.00;93.50;;;;;;4991403;28;20557;-54
2020/12/18 10:23:48;;;;;;;20.80;10.38;;;8.00;93.50;;;;;;4976196;28;20574;-52
2020/12/18 10:26:34;;;;;;;16.08;8.07;;;8.10;93.40;;;;;;4975535;28;20055;-54
2020/12/18 10:29:00;;;;;;;17.23;8.65;;;8.10;93.20;;;;;;4978323;28;20109;-55
2020/12/18 10:31:26;;;;;;;16.30;8.65;;;8.20;93.10;;;;;;4989065;28;20042;-51
2020/12/18 10:34:11;;;;;;;16.95;8.00;;;8.30;93.00;;;;;;4982493;28;20045;-50
2020/12/18 10:36:57;;;;;;;16.73;8.65;;;8.20;92.90;;;;;;4991178;28;20038;-51
2020/12/18 10:39:24;;;;;;;18.70;9.07;;;8.20;93.00;;;;;;4983519;28;20084;-51
2020/12/18 10:42:10;;;;;;;16.67;8.60;;;8.20;93.10;;;;;;4989710;28;20046;-52
2020/12/18 10:44:37;;;;;;;17.02;8.57;;;8.30;92.80;;;;;;4985800;28;20046;-52
2020/12/18 10:47:04;;;;;;;15.93;8.65;;;8.40;92.80;;;;;;4991916;28;20503;-52
2020/12/18 10:49:29;;;;;;;15.13;8.98;;;8.40;92.90;;;;;;4976323;28;20066;-51
2020/12/18 10:51:55;;;;;;;15.25;8.95;;;8.30;92.90;;;;;;4988298;28;20046;-51
2020/12/18 10:54:21;;;;;;;14.90;8.50;;;8.40;92.90;;;;;;4979935;28;20030;-54
2020/12/18 10:56:48;;;;;;;18.83;9.20;;;8.50;92.70;;;;;;4995331;28;20070;-52
2020/12/18 10:59:14;;;;;;;19.60;8.55;;;8.50;92.70;;;;;;4989963;28;20444;-53
2020/12/18 11:02:02;;;;;;;14.23;9.10;;;8.50;92.60;;;;;;4986418;28;20526;-53
2020/12/18 11:04:30;;;;;;;17.15;9.05;;;8.50;92.70;;;;;;4994430;28;20056;-54
2020/12/18 11:06:55;;;;;;;15.75;8.93;;;8.60;92.70;;;;;;4995581;28;20068;-54
2020/12/18 11:09:21;;;;;;;16.38;8.77;;;8.60;92.70;;;;;;4991804;28;20377;-52
2020/12/18 11:11:52;;;;;;;14.18;8.98;;;8.70;92.60;;;;;;4975450;28;20042;-52
2020/12/18 11:14:20;;;;;;;14.80;9.18;;;8.70;92.60;;;;;;4990858;28;20048;-51
2020/12/18 11:17:05;;;;;;;19.58;9.13;;;8.80;92.40;;;;;;4979987;28;20419;-51
2020/12/18 11:19:34;;;;;;;16.75;8.77;;;8.80;92.40;;;;;;4981252;28;20041;-52
2020/12/18 11:22:00;;;;;;;18.05;9.18;;;8.90;92.30;;;;;;4994744;28;20120;-55
2020/12/18 11:24:26;;;;;;;14.43;8.77;;;8.90;92.20;;;;;;4987519;28;20097;-54
2020/12/18 11:27:11;;;;;;;15.38;8.40;;;8.90;92.30;;;;;;4986204;28;20050;-54
2020/12/18 11:29:57;;;;;;;16.77;9.00;;;9.00;92.20;;;;;;4990933;28;20603;-54
2020/12/18 11:32:24;;;;;;;13.85;8.52;;;9.00;92.00;;;;;;4987150;28;20129;-52
2020/12/18 11:35:10;;;;;;;13.82;7.60;;;9.00;91.90;;;;;;4988967;28;20138;-53
2020/12/18 11:37:36;;;;;;;14.60;8.30;;;9.00;91.70;;;;;;4985669;28;20478;-56
2020/12/18 11:40:22;;;;;;;17.05;9.35;;;9.00;91.80;;;;;;4974465;28;20106;-51
2020/12/18 11:43:09;;;;;;;14.02;8.70;;;9.10;91.90;;;;;;4966718;28;20050;-52
2020/12/18 11:45:35;;;;;;;15.25;8.23;;;9.10;91.80;;;;;;5009359;28;20038;-54
2020/12/18 11:48:01;;;;;;;16.92;8.23;;;9.10;91.70;;;;;;4993538;28;20048;-56
2020/12/18 11:50:28;;;;;;;17.77;8.30;;;9.00;91.80;;;;;;4993501;28;20042;-56
2020/12/18 11:53:14;;;;;;;15.90;8.60;;;9.20;91.60;;;;;;4979467;28;20531;-56
2020/12/18 11:55:40;;;;;;;15.32;7.75;;;9.20;91.60;;;;;;4993809;28;20050;-56
2020/12/18 11:58:06;;;;;;;19.90;7.95;;;9.20;91.40;;;;;;4992096;28;20054;-56
2020/12/18 12:00:32;;;;;;;18.77;7.88;;;9.20;91.30;;;;;;4985081;28;20565;-56
2020/12/18 12:03:18;;;;;;;17.08;8.27;;;9.20;91.40;;;;;;4976553;28;20141;-56
2020/12/18 12:05:45;;;;;;;16.10;7.90;;;9.20;91.30;;;;;;4982418;28;20055;-54
2020/12/18 12:08:10;;;;;;;16.58;8.55;;;9.20;91.50;;;;;;4987645;28;20459;-54
2020/12/18 12:10:36;;;;;;;15.13;7.45;;;9.20;91.60;;;;;;4982400;28;20034;-57
2020/12/18 12:13:02;;;;;;;14.73;7.90;;;9.20;91.30;;;;;;4992675;28;20050;-55
2020/12/18 12:15:48;;;;;;;17.65;8.45;;;9.30;91.30;;;;;;4984360;28;20046;-56
2020/12/18 12:18:14;;;;;;;14.82;7.95;;;9.20;91.60;;;;;;4988600;28;20038;-55
2020/12/18 12:20:40;;;;;;;18.23;7.63;;;9.30;91.70;;;;;;4993415;28;20030;-55
2020/12/18 12:23:05;;;;;;;17.55;7.65;;;9.30;91.50;;;;;;4979651;28;20058;-55
2020/12/18 12:25:31;;;;;;;13.40;7.28;;;9.30;91.60;;;;;;4978506;28;20072;-55
2020/12/18 12:28:17;;;;;;;14.38;8.00;;;9.40;91.30;;;;;;4991756;28;20050;-54
2020/12/18 12:30:43;;;;;;;14.48;7.25;;;9.40;91.40;;;;;;4984848;28;20069;-51
2020/12/18 12:33:09;;;;;;;15.95;7.65;;;9.40;91.40;;;;;;4984083;28;20396;-55
2020/12/18 12:35:36;;;;;;;14.20;6.28;;;9.40;91.40;;;;;;4989607;28;20050;-53
2020/12/18 12:38:23;;;;;;;12.20;6.25;;;9.40;91.40;;;;;;4973387;28;20397;-54
2020/12/18 12:40:50;;;;;;;15.70;6.80;;;9.50;91.20;;;;;;4973469;28;20046;-54
2020/12/18 12:43:16;;;;;;;13.30;6.10;;;9.50;91.20;;;;;;4993000;28;20093;-53
2020/12/18 12:45:44;;;;;;;12.07;6.40;;;9.50;91.30;;;;;;4975980;28;20050;-52
2020/12/18 12:48:10;;;;;;;14.95;6.10;;;9.50;91.20;;;;;;4977367;28;20042;-51
2020/12/18 12:50:36;;;;;;;10.18;5.80;;;9.50;91.30;;;;;;4973403;28;20129;-50
2020/12/18 12:53:02;;;;;;;14.82;5.95;;;9.50;91.10;;;;;;4989907;28;20046;-49
2020/12/18 12:55:28;;;;;;;23.85;5.90;;;9.50;91.20;;;;;;4978955;28;20105;-56
2020/12/18 12:57:55;;;;;;;16.60;6.07;;;9.60;90.90;;;;;;4987321;28;20043;-55
2020/12/18 13:00:41;;;;;;;12.40;5.53;;;9.60;90.90;;;;;;4972131;28;20047;-55
2020/12/18 13:03:07;;;;;;;11.32;5.68;;;9.60;90.70;;;;;;4978690;28;20042;-54
2020/12/18 13:05:42;;;;;;;12.07;5.13;;;9.60;90.70;;;;;;4993432;28;20050;-50
2020/12/18 13:08:12;;;;;;;10.23;5.13;;;9.60;90.50;;;;;;4979164;28;20038;-50
2020/12/18 13:10:45;;;;;;;13.68;5.43;;;9.70;90.40;;;;;;4982097;28;20043;-50